sensor_id;sensor_type;location;lat;lon;timestamp;P1;durP1;ratioP1;P2;durP2;ratioP2
18435;SDS011;9346;52.006;4.720;2023-07-20T00:02:03;7.37;;;5.53;;
18435;SDS011;9346;52.006;4.720;2023-07-20T00:04:33;7.83;;;5.80;;
18435;SDS011;9346;52.006;4.720;2023-07-20T00:07:00;8.03;;;5.73;;
18435;SDS011;9346;52.006;4.720;2023-07-20T00:09:27;6.87;;;5.43;;
18435;SDS011;9346;52.006;4.720;2023-07-20T00:11:54;7.93;;;6.07;;
18435;SDS011;9346;52.006;4.720;2023-07-20T00:14:23;9.83;;;5.70;;
18435;SDS011;9346;52.006;4.720;2023-07-20T00:16:50;6.23;;;5.63;;
18435;SDS011;9346;52.006;4.720;2023-07-20T00:19:21;7.10;;;6.03;;
18435;SDS011;9346;52.006;4.720;2023-07-20T00:21:48;8.60;;;6.33;;
18435;SDS011;9346;52.006;4.720;2023-07-20T00:24:15;8.53;;;6.33;;
18435;SDS011;9346;52.006;4.720;2023-07-20T00:26:42;10.27;;;5.60;;
18435;SDS011;9346;52.006;4.720;2023-07-20T00:29:11;8.67;;;6.10;;
18435;SDS011;9346;52.006;4.720;2023-07-20T00:31:40;10.87;;;5.80;;
18435;SDS011;9346;52.006;4.720;2023-07-20T00:34:08;6.63;;;5.30;;
18435;SDS011;9346;52.006;4.720;2023-07-20T00:36:35;7.93;;;5.70;;
18435;SDS011;9346;52.006;4.720;2023-07-20T00:39:02;6.77;;;5.70;;
18435;SDS011;9346;52.006;4.720;2023-07-20T00:44:51;8.03;;;5.40;;
18435;SDS011;9346;52.006;4.720;2023-07-20T00:47:19;7.40;;;5.93;;
18435;SDS011;9346;52.006;4.720;2023-07-20T00:49:47;6.50;;;4.67;;
18435;SDS011;9346;52.006;4.720;2023-07-20T00:52:14;5.20;;;4.10;;
18435;SDS011;9346;52.006;4.720;2023-07-20T00:54:41;5.03;;;4.00;;
18435;SDS011;9346;52.006;4.720;2023-07-20T00:57:08;5.77;;;3.47;;
18435;SDS011;9346;52.006;4.720;2023-07-20T00:59:36;3.70;;;3.20;;
18435;SDS011;9346;52.006;4.720;2023-07-20T01:02:04;3.13;;;2.80;;
18435;SDS011;9346;52.006;4.720;2023-07-20T01:04:32;3.47;;;2.73;;
18435;SDS011;9346;52.006;4.720;2023-07-20T01:07:02;4.83;;;3.27;;
18435;SDS011;9346;52.006;4.720;2023-07-20T01:09:41;5.57;;;2.80;;
18435;SDS011;9346;52.006;4.720;2023-07-20T01:12:16;3.67;;;2.33;;
18435;SDS011;9346;52.006;4.720;2023-07-20T01:14:49;2.70;;;2.50;;
18435;SDS011;9346;52.006;4.720;2023-07-20T01:17:16;3.47;;;2.53;;
18435;SDS011;9346;52.006;4.720;2023-07-20T01:19:44;4.60;;;2.63;;
18435;SDS011;9346;52.006;4.720;2023-07-20T01:22:15;3.70;;;2.47;;
18435;SDS011;9346;52.006;4.720;2023-07-20T01:25:03;3.37;;;2.27;;
18435;SDS011;9346;52.006;4.720;2023-07-20T01:27:54;4.27;;;2.20;;
18435;SDS011;9346;52.006;4.720;2023-07-20T01:30:52;1.97;;;1.77;;
18435;SDS011;9346;52.006;4.720;2023-07-20T01:33:26;3.87;;;1.77;;
18435;SDS011;9346;52.006;4.720;2023-07-20T01:35:57;3.17;;;2.27;;
18435;SDS011;9346;52.006;4.720;2023-07-20T01:38:26;1.90;;;1.70;;
18435;SDS011;9346;52.006;4.720;2023-07-20T01:40:53;2.57;;;2.00;;
18435;SDS011;9346;52.006;4.720;2023-07-20T01:43:21;3.00;;;2.13;;
18435;SDS011;9346;52.006;4.720;2023-07-20T01:45:48;2.20;;;2.00;;
18435;SDS011;9346;52.006;4.720;2023-07-20T01:48:15;2.07;;;1.87;;
18435;SDS011;9346;52.006;4.720;2023-07-20T01:50:44;1.60;;;1.50;;
18435;SDS011;9346;52.006;4.720;2023-07-20T01:53:11;2.77;;;1.87;;
18435;SDS011;9346;52.006;4.720;2023-07-20T01:55:38;1.83;;;1.73;;
18435;SDS011;9346;52.006;4.720;2023-07-20T01:58:05;2.73;;;2.13;;
18435;SDS011;9346;52.006;4.720;2023-07-20T02:00:32;2.30;;;1.77;;
18435;SDS011;9346;52.006;4.720;2023-07-20T02:02:59;1.90;;;1.80;;
18435;SDS011;9346;52.006;4.720;2023-07-20T02:05:26;2.20;;;2.00;;
18435;SDS011;9346;52.006;4.720;2023-07-20T02:07:55;2.80;;;2.00;;
18435;SDS011;9346;52.006;4.720;2023-07-20T02:10:22;1.90;;;1.80;;
18435;SDS011;9346;52.006;4.720;2023-07-20T02:12:51;8.67;;;2.37;;
18435;SDS011;9346;52.006;4.720;2023-07-20T02:15:18;2.93;;;2.10;;
18435;SDS011;9346;52.006;4.720;2023-07-20T02:17:44;3.27;;;1.93;;
18435;SDS011;9346;52.006;4.720;2023-07-20T02:20:11;2.67;;;2.00;;
18435;SDS011;9346;52.006;4.720;2023-07-20T02:22:38;1.93;;;1.70;;
18435;SDS011;9346;52.006;4.720;2023-07-20T02:25:08;1.67;;;1.57;;
18435;SDS011;9346;52.006;4.720;2023-07-20T02:27:36;2.30;;;1.87;;
18435;SDS011;9346;52.006;4.720;2023-07-20T02:30:04;2.37;;;2.10;;
18435;SDS011;9346;52.006;4.720;2023-07-20T02:32:32;2.47;;;1.90;;
18435;SDS011;9346;52.006;4.720;2023-07-20T02:35:00;2.43;;;1.73;;
18435;SDS011;9346;52.006;4.720;2023-07-20T02:37:28;3.10;;;2.03;;
18435;SDS011;9346;52.006;4.720;2023-07-20T02:39:55;2.93;;;2.33;;
18435;SDS011;9346;52.006;4.720;2023-07-20T02:42:24;2.30;;;2.10;;
18435;SDS011;9346;52.006;4.720;2023-07-20T02:44:51;2.53;;;2.27;;
18435;SDS011;9346;52.006;4.720;2023-07-20T02:47:18;2.50;;;2.13;;
18435;SDS011;9346;52.006;4.720;2023-07-20T02:49:45;2.77;;;1.80;;
18435;SDS011;9346;52.006;4.720;2023-07-20T02:52:12;3.60;;;2.53;;
18435;SDS011;9346;52.006;4.720;2023-07-20T02:54:39;3.10;;;2.40;;
18435;SDS011;9346;52.006;4.720;2023-07-20T02:57:06;3.40;;;2.30;;
18435;SDS011;9346;52.006;4.720;2023-07-20T02:59:35;4.43;;;2.77;;
18435;SDS011;9346;52.006;4.720;2023-07-20T03:02:02;4.60;;;2.70;;
18435;SDS011;9346;52.006;4.720;2023-07-20T03:04:29;2.40;;;2.03;;
18435;SDS011;9346;52.006;4.720;2023-07-20T03:06:56;3.67;;;2.97;;
18435;SDS011;9346;52.006;4.720;2023-07-20T03:09:25;5.17;;;2.80;;
18435;SDS011;9346;52.006;4.720;2023-07-20T03:11:52;3.13;;;2.80;;
18435;SDS011;9346;52.006;4.720;2023-07-20T03:14:19;4.50;;;3.20;;
18435;SDS011;9346;52.006;4.720;2023-07-20T03:16:47;3.03;;;2.73;;
18435;SDS011;9346;52.006;4.720;2023-07-20T03:19:14;4.60;;;3.50;;
18435;SDS011;9346;52.006;4.720;2023-07-20T03:21:41;3.03;;;2.63;;
18435;SDS011;9346;52.006;4.720;2023-07-20T03:24:08;2.97;;;2.67;;
18435;SDS011;9346;52.006;4.720;2023-07-20T03:26:35;3.23;;;2.93;;
18435;SDS011;9346;52.006;4.720;2023-07-20T03:29:03;4.57;;;3.40;;
18435;SDS011;9346;52.006;4.720;2023-07-20T03:31:31;4.30;;;3.73;;
18435;SDS011;9346;52.006;4.720;2023-07-20T03:34:00;4.57;;;3.93;;
18435;SDS011;9346;52.006;4.720;2023-07-20T03:36:27;4.53;;;3.23;;
18435;SDS011;9346;52.006;4.720;2023-07-20T03:38:54;4.00;;;3.63;;
18435;SDS011;9346;52.006;4.720;2023-07-20T03:41:21;5.20;;;4.50;;
18435;SDS011;9346;52.006;4.720;2023-07-20T03:43:48;6.17;;;4.43;;
18435;SDS011;9346;52.006;4.720;2023-07-20T03:46:16;6.33;;;4.50;;
18435;SDS011;9346;52.006;4.720;2023-07-20T03:48:44;5.93;;;5.30;;
18435;SDS011;9346;52.006;4.720;2023-07-20T03:51:13;8.57;;;5.03;;
18435;SDS011;9346;52.006;4.720;2023-07-20T03:53:40;7.43;;;5.03;;
18435;SDS011;9346;52.006;4.720;2023-07-20T03:56:07;5.73;;;5.13;;
18435;SDS011;9346;52.006;4.720;2023-07-20T03:58:34;7.17;;;5.27;;
18435;SDS011;9346;52.006;4.720;2023-07-20T04:01:01;6.60;;;5.10;;
18435;SDS011;9346;52.006;4.720;2023-07-20T04:03:29;6.33;;;4.50;;
18435;SDS011;9346;52.006;4.720;2023-07-20T04:05:56;6.60;;;4.97;;
18435;SDS011;9346;52.006;4.720;2023-07-20T04:08:25;5.20;;;4.50;;
18435;SDS011;9346;52.006;4.720;2023-07-20T04:10:52;5.67;;;4.63;;
18435;SDS011;9346;52.006;4.720;2023-07-20T04:13:19;7.17;;;5.47;;
18435;SDS011;9346;52.006;4.720;2023-07-20T04:15:48;8.10;;;5.10;;
18435;SDS011;9346;52.006;4.720;2023-07-20T04:18:15;6.47;;;4.80;;
18435;SDS011;9346;52.006;4.720;2023-07-20T04:20:42;5.87;;;5.10;;
18435;SDS011;9346;52.006;4.720;2023-07-20T04:23:09;5.63;;;3.93;;
18435;SDS011;9346;52.006;4.720;2023-07-20T04:25:38;6.03;;;4.83;;
18435;SDS011;9346;52.006;4.720;2023-07-20T04:28:06;6.37;;;4.87;;
18435;SDS011;9346;52.006;4.720;2023-07-20T04:30:36;6.37;;;4.73;;
18435;SDS011;9346;52.006;4.720;2023-07-20T04:33:03;5.17;;;4.30;;
18435;SDS011;9346;52.006;4.720;2023-07-20T04:35:47;4.40;;;3.73;;
18435;SDS011;9346;52.006;4.720;2023-07-20T04:38:15;4.07;;;3.23;;
18435;SDS011;9346;52.006;4.720;2023-07-20T04:40:46;6.37;;;4.57;;
18435;SDS011;9346;52.006;4.720;2023-07-20T04:43:14;4.83;;;4.10;;
18435;SDS011;9346;52.006;4.720;2023-07-20T04:45:43;4.77;;;3.77;;
18435;SDS011;9346;52.006;4.720;2023-07-20T04:48:10;4.60;;;3.20;;
18435;SDS011;9346;52.006;4.720;2023-07-20T04:50:38;4.07;;;3.30;;
18435;SDS011;9346;52.006;4.720;2023-07-20T04:53:08;3.73;;;2.83;;
18435;SDS011;9346;52.006;4.720;2023-07-20T04:55:36;3.13;;;2.67;;
18435;SDS011;9346;52.006;4.720;2023-07-20T04:58:05;3.27;;;2.50;;
18435;SDS011;9346;52.006;4.720;2023-07-20T05:00:33;6.00;;;3.13;;
18435;SDS011;9346;52.006;4.720;2023-07-20T05:03:00;4.10;;;2.40;;
18435;SDS011;9346;52.006;4.720;2023-07-20T05:05:27;4.43;;;2.30;;
18435;SDS011;9346;52.006;4.720;2023-07-20T05:07:53;3.33;;;2.47;;
18435;SDS011;9346;52.006;4.720;2023-07-20T05:10:20;3.97;;;2.30;;
18435;SDS011;9346;52.006;4.720;2023-07-20T05:12:48;3.13;;;2.73;;
18435;SDS011;9346;52.006;4.720;2023-07-20T05:15:16;5.13;;;3.20;;
18435;SDS011;9346;52.006;4.720;2023-07-20T05:17:43;3.97;;;3.37;;
18435;SDS011;9346;52.006;4.720;2023-07-20T05:20:10;4.33;;;3.10;;
18435;SDS011;9346;52.006;4.720;2023-07-20T05:22:38;4.47;;;3.37;;
18435;SDS011;9346;52.006;4.720;2023-07-20T05:25:06;3.73;;;3.00;;
18435;SDS011;9346;52.006;4.720;2023-07-20T05:27:34;5.23;;;3.13;;
18435;SDS011;9346;52.006;4.720;2023-07-20T05:30:02;4.70;;;2.93;;
18435;SDS011;9346;52.006;4.720;2023-07-20T05:32:31;3.70;;;2.77;;
18435;SDS011;9346;52.006;4.720;2023-07-20T05:34:59;3.10;;;2.80;;
18435;SDS011;9346;52.006;4.720;2023-07-20T05:37:26;4.00;;;2.93;;
18435;SDS011;9346;52.006;4.720;2023-07-20T05:39:53;3.17;;;2.80;;
18435;SDS011;9346;52.006;4.720;2023-07-20T05:42:20;2.73;;;2.53;;
18435;SDS011;9346;52.006;4.720;2023-07-20T05:44:48;3.40;;;2.47;;
18435;SDS011;9346;52.006;4.720;2023-07-20T05:47:17;3.03;;;2.53;;
18435;SDS011;9346;52.006;4.720;2023-07-20T05:49:46;5.03;;;2.63;;
18435;SDS011;9346;52.006;4.720;2023-07-20T05:52:13;3.33;;;2.03;;
18435;SDS011;9346;52.006;4.720;2023-07-20T05:54:40;2.47;;;1.83;;
18435;SDS011;9346;52.006;4.720;2023-07-20T05:57:07;2.87;;;2.03;;
18435;SDS011;9346;52.006;4.720;2023-07-20T05:59:34;2.70;;;1.77;;
18435;SDS011;9346;52.006;4.720;2023-07-20T06:02:03;1.93;;;1.67;;
18435;SDS011;9346;52.006;4.720;2023-07-20T06:04:30;2.13;;;1.60;;
18435;SDS011;9346;52.006;4.720;2023-07-20T06:06:59;1.80;;;1.70;;
18435;SDS011;9346;52.006;4.720;2023-07-20T06:09:26;2.80;;;1.60;;
18435;SDS011;9346;52.006;4.720;2023-07-20T06:11:52;1.77;;;1.30;;
18435;SDS011;9346;52.006;4.720;2023-07-20T06:14:20;1.30;;;1.00;;
18435;SDS011;9346;52.006;4.720;2023-07-20T06:16:47;1.43;;;1.27;;
18435;SDS011;9346;52.006;4.720;2023-07-20T06:19:14;2.17;;;1.50;;
18435;SDS011;9346;52.006;4.720;2023-07-20T06:21:41;2.87;;;1.03;;
18435;SDS011;9346;52.006;4.720;2023-07-20T06:24:12;1.77;;;1.40;;
18435;SDS011;9346;52.006;4.720;2023-07-20T06:26:39;1.20;;;1.10;;
18435;SDS011;9346;52.006;4.720;2023-07-20T06:29:06;1.43;;;1.13;;
18435;SDS011;9346;52.006;4.720;2023-07-20T06:31:34;1.40;;;1.03;;
18435;SDS011;9346;52.006;4.720;2023-07-20T06:34:02;1.37;;;1.13;;
18435;SDS011;9346;52.006;4.720;2023-07-20T06:36:29;2.10;;;1.00;;
18435;SDS011;9346;52.006;4.720;2023-07-20T06:38:56;1.10;;;1.00;;
18435;SDS011;9346;52.006;4.720;2023-07-20T06:41:27;1.13;;;0.97;;
18435;SDS011;9346;52.006;4.720;2023-07-20T06:43:54;0.83;;;0.77;;
18435;SDS011;9346;52.006;4.720;2023-07-20T06:46:23;0.73;;;0.73;;
18435;SDS011;9346;52.006;4.720;2023-07-20T06:48:51;0.80;;;0.70;;
18435;SDS011;9346;52.006;4.720;2023-07-20T06:51:18;2.60;;;1.20;;
18435;SDS011;9346;52.006;4.720;2023-07-20T06:53:45;1.57;;;0.90;;
18435;SDS011;9346;52.006;4.720;2023-07-20T06:56:12;0.90;;;0.70;;
18435;SDS011;9346;52.006;4.720;2023-07-20T06:58:41;1.47;;;0.70;;
18435;SDS011;9346;52.006;4.720;2023-07-20T07:01:08;0.70;;;0.70;;
18435;SDS011;9346;52.006;4.720;2023-07-20T07:03:35;1.17;;;1.00;;
18435;SDS011;9346;52.006;4.720;2023-07-20T07:06:03;1.07;;;0.67;;
18435;SDS011;9346;52.006;4.720;2023-07-20T07:08:30;2.80;;;1.20;;
18435;SDS011;9346;52.006;4.720;2023-07-20T07:10:57;1.07;;;0.97;;
18435;SDS011;9346;52.006;4.720;2023-07-20T07:13:25;0.87;;;0.83;;
18435;SDS011;9346;52.006;4.720;2023-07-20T07:15:53;1.10;;;1.00;;
18435;SDS011;9346;52.006;4.720;2023-07-20T07:18:20;1.70;;;1.10;;
18435;SDS011;9346;52.006;4.720;2023-07-20T07:20:51;2.30;;;0.73;;
18435;SDS011;9346;52.006;4.720;2023-07-20T07:23:26;1.20;;;0.97;;
18435;SDS011;9346;52.006;4.720;2023-07-20T07:25:53;1.73;;;1.00;;
18435;SDS011;9346;52.006;4.720;2023-07-20T07:28:21;1.23;;;0.87;;
18435;SDS011;9346;52.006;4.720;2023-07-20T07:30:48;1.10;;;0.90;;
18435;SDS011;9346;52.006;4.720;2023-07-20T07:33:17;0.60;;;0.60;;
18435;SDS011;9346;52.006;4.720;2023-07-20T07:35:44;0.73;;;0.73;;
18435;SDS011;9346;52.006;4.720;2023-07-20T07:38:11;0.77;;;0.60;;
18435;SDS011;9346;52.006;4.720;2023-07-20T07:40:38;1.33;;;0.77;;
18435;SDS011;9346;52.006;4.720;2023-07-20T07:43:05;0.97;;;0.87;;
18435;SDS011;9346;52.006;4.720;2023-07-20T07:45:34;0.57;;;0.57;;
18435;SDS011;9346;52.006;4.720;2023-07-20T07:48:03;0.83;;;0.83;;
18435;SDS011;9346;52.006;4.720;2023-07-20T07:50:33;0.97;;;0.70;;
18435;SDS011;9346;52.006;4.720;2023-07-20T07:53:00;0.60;;;0.60;;
18435;SDS011;9346;52.006;4.720;2023-07-20T07:55:27;3.73;;;1.10;;
18435;SDS011;9346;52.006;4.720;2023-07-20T07:57:53;1.20;;;0.80;;
18435;SDS011;9346;52.006;4.720;2023-07-20T08:00:21;0.70;;;0.70;;
18435;SDS011;9346;52.006;4.720;2023-07-20T08:02:49;0.73;;;0.73;;
18435;SDS011;9346;52.006;4.720;2023-07-20T08:05:17;1.17;;;0.83;;
18435;SDS011;9346;52.006;4.720;2023-07-20T08:07:45;0.50;;;0.50;;
18435;SDS011;9346;52.006;4.720;2023-07-20T08:10:12;0.97;;;0.70;;
18435;SDS011;9346;52.006;4.720;2023-07-20T08:12:39;1.83;;;0.80;;
18435;SDS011;9346;52.006;4.720;2023-07-20T08:15:07;0.57;;;0.53;;
18435;SDS011;9346;52.006;4.720;2023-07-20T08:17:34;0.70;;;0.70;;
18435;SDS011;9346;52.006;4.720;2023-07-20T08:20:01;0.80;;;0.70;;
18435;SDS011;9346;52.006;4.720;2023-07-20T08:22:29;0.80;;;0.80;;
18435;SDS011;9346;52.006;4.720;2023-07-20T08:24:58;1.00;;;0.80;;
18435;SDS011;9346;52.006;4.720;2023-07-20T08:27:25;1.23;;;0.67;;
18435;SDS011;9346;52.006;4.720;2023-07-20T08:29:52;3.10;;;0.87;;
18435;SDS011;9346;52.006;4.720;2023-07-20T08:32:19;0.73;;;0.67;;
18435;SDS011;9346;52.006;4.720;2023-07-20T08:34:46;0.60;;;0.60;;
18435;SDS011;9346;52.006;4.720;2023-07-20T08:37:13;1.60;;;0.60;;
18435;SDS011;9346;52.006;4.720;2023-07-20T08:39:40;0.87;;;0.70;;
18435;SDS011;9346;52.006;4.720;2023-07-20T08:42:10;0.67;;;0.67;;
18435;SDS011;9346;52.006;4.720;2023-07-20T08:44:39;0.67;;;0.67;;
18435;SDS011;9346;52.006;4.720;2023-07-20T08:47:10;0.60;;;0.60;;
18435;SDS011;9346;52.006;4.720;2023-07-20T08:49:40;1.00;;;0.97;;
18435;SDS011;9346;52.006;4.720;2023-07-20T08:52:08;2.50;;;1.00;;
18435;SDS011;9346;52.006;4.720;2023-07-20T08:54:35;1.20;;;1.10;;
18435;SDS011;9346;52.006;4.720;2023-07-20T08:57:03;0.90;;;0.83;;
18435;SDS011;9346;52.006;4.720;2023-07-20T08:59:43;0.80;;;0.80;;
18435;SDS011;9346;52.006;4.720;2023-07-20T09:02:12;2.03;;;0.60;;
18435;SDS011;9346;52.006;4.720;2023-07-20T09:04:43;0.93;;;0.77;;
18435;SDS011;9346;52.006;4.720;2023-07-20T09:07:11;0.80;;;0.63;;
18435;SDS011;9346;52.006;4.720;2023-07-20T09:09:39;0.60;;;0.60;;
18435;SDS011;9346;52.006;4.720;2023-07-20T09:12:12;0.93;;;0.80;;
18435;SDS011;9346;52.006;4.720;2023-07-20T09:14:44;1.80;;;0.63;;
18435;SDS011;9346;52.006;4.720;2023-07-20T09:17:12;0.87;;;0.87;;
18435;SDS011;9346;52.006;4.720;2023-07-20T09:19:45;1.10;;;0.87;;
18435;SDS011;9346;52.006;4.720;2023-07-20T09:22:12;1.10;;;1.00;;
18435;SDS011;9346;52.006;4.720;2023-07-20T09:24:40;1.30;;;1.00;;
18435;SDS011;9346;52.006;4.720;2023-07-20T09:27:08;1.07;;;0.87;;
18435;SDS011;9346;52.006;4.720;2023-07-20T09:29:40;1.03;;;0.83;;
18435;SDS011;9346;52.006;4.720;2023-07-20T09:32:17;1.10;;;0.90;;
18435;SDS011;9346;52.006;4.720;2023-07-20T09:34:46;3.73;;;0.97;;
18435;SDS011;9346;52.006;4.720;2023-07-20T09:37:13;1.10;;;1.00;;
18435;SDS011;9346;52.006;4.720;2023-07-20T09:39:43;0.90;;;0.73;;
18435;SDS011;9346;52.006;4.720;2023-07-20T09:42:11;2.23;;;1.53;;
18435;SDS011;9346;52.006;4.720;2023-07-20T09:44:38;0.93;;;0.80;;
18435;SDS011;9346;52.006;4.720;2023-07-20T09:47:09;0.70;;;0.70;;
18435;SDS011;9346;52.006;4.720;2023-07-20T09:49:38;2.23;;;0.90;;
18435;SDS011;9346;52.006;4.720;2023-07-20T09:52:06;2.77;;;1.23;;
18435;SDS011;9346;52.006;4.720;2023-07-20T09:54:35;1.00;;;1.00;;
18435;SDS011;9346;52.006;4.720;2023-07-20T09:57:05;1.43;;;1.03;;
18435;SDS011;9346;52.006;4.720;2023-07-20T09:59:34;1.50;;;1.00;;
18435;SDS011;9346;52.006;4.720;2023-07-20T10:02:02;1.13;;;1.03;;
18435;SDS011;9346;52.006;4.720;2023-07-20T10:04:39;1.17;;;0.80;;
18435;SDS011;9346;52.006;4.720;2023-07-20T10:07:09;1.63;;;0.90;;
18435;SDS011;9346;52.006;4.720;2023-07-20T10:09:39;1.30;;;1.20;;
18435;SDS011;9346;52.006;4.720;2023-07-20T10:12:06;1.70;;;1.20;;
18435;SDS011;9346;52.006;4.720;2023-07-20T10:14:36;1.90;;;0.97;;
18435;SDS011;9346;52.006;4.720;2023-07-20T10:17:07;1.33;;;1.00;;
18435;SDS011;9346;52.006;4.720;2023-07-20T10:19:43;2.23;;;0.90;;
18435;SDS011;9346;52.006;4.720;2023-07-20T10:22:26;1.37;;;1.00;;
18435;SDS011;9346;52.006;4.720;2023-07-20T10:24:56;1.30;;;1.17;;
18435;SDS011;9346;52.006;4.720;2023-07-20T10:27:26;1.73;;;1.00;;
18435;SDS011;9346;52.006;4.720;2023-07-20T10:29:53;0.97;;;0.90;;
18435;SDS011;9346;52.006;4.720;2023-07-20T10:32:22;1.00;;;1.00;;
18435;SDS011;9346;52.006;4.720;2023-07-20T10:34:55;0.87;;;0.87;;
18435;SDS011;9346;52.006;4.720;2023-07-20T10:40:24;1.80;;;0.97;;
18435;SDS011;9346;52.006;4.720;2023-07-20T10:43:02;1.10;;;1.00;;
18435;SDS011;9346;52.006;4.720;2023-07-20T10:45:36;1.37;;;1.20;;
18435;SDS011;9346;52.006;4.720;2023-07-20T10:48:06;1.37;;;1.10;;
18435;SDS011;9346;52.006;4.720;2023-07-20T10:50:42;1.10;;;1.00;;
18435;SDS011;9346;52.006;4.720;2023-07-20T10:53:10;2.13;;;1.20;;
18435;SDS011;9346;52.006;4.720;2023-07-20T10:55:38;1.67;;;1.20;;
18435;SDS011;9346;52.006;4.720;2023-07-20T10:58:08;1.70;;;1.10;;
18435;SDS011;9346;52.006;4.720;2023-07-20T11:00:37;2.10;;;1.10;;
18435;SDS011;9346;52.006;4.720;2023-07-20T11:03:04;1.20;;;1.10;;
18435;SDS011;9346;52.006;4.720;2023-07-20T11:05:33;1.20;;;1.10;;
18435;SDS011;9346;52.006;4.720;2023-07-20T11:08:05;0.83;;;0.80;;
18435;SDS011;9346;52.006;4.720;2023-07-20T11:10:35;0.97;;;0.83;;
18435;SDS011;9346;52.006;4.720;2023-07-20T11:13:15;1.17;;;1.07;;
18435;SDS011;9346;52.006;4.720;2023-07-20T11:15:47;1.30;;;1.20;;
18435;SDS011;9346;52.006;4.720;2023-07-20T11:18:34;2.60;;;1.13;;
18435;SDS011;9346;52.006;4.720;2023-07-20T11:21:09;1.37;;;0.93;;
18435;SDS011;9346;52.006;4.720;2023-07-20T11:23:39;1.70;;;1.20;;
18435;SDS011;9346;52.006;4.720;2023-07-20T11:26:06;1.00;;;1.00;;
18435;SDS011;9346;52.006;4.720;2023-07-20T11:28:33;1.53;;;1.10;;
18435;SDS011;9346;52.006;4.720;2023-07-20T11:31:01;1.20;;;1.10;;
18435;SDS011;9346;52.006;4.720;2023-07-20T11:33:28;1.20;;;1.10;;
18435;SDS011;9346;52.006;4.720;2023-07-20T11:35:54;0.97;;;0.83;;
18435;SDS011;9346;52.006;4.720;2023-07-20T11:38:23;1.07;;;0.97;;
18435;SDS011;9346;52.006;4.720;2023-07-20T11:40:52;1.20;;;0.90;;
18435;SDS011;9346;52.006;4.720;2023-07-20T11:43:19;1.30;;;0.80;;
18435;SDS011;9346;52.006;4.720;2023-07-20T11:45:48;2.20;;;1.20;;
18435;SDS011;9346;52.006;4.720;2023-07-20T11:48:15;0.93;;;0.90;;
18435;SDS011;9346;52.006;4.720;2023-07-20T11:50:43;1.13;;;1.00;;
18435;SDS011;9346;52.006;4.720;2023-07-20T11:53:10;2.10;;;1.03;;
18435;SDS011;9346;52.006;4.720;2023-07-20T11:55:37;2.17;;;1.37;;
18435;SDS011;9346;52.006;4.720;2023-07-20T11:58:08;1.10;;;1.00;;
18435;SDS011;9346;52.006;4.720;2023-07-20T12:00:37;1.50;;;1.10;;
18435;SDS011;9346;52.006;4.720;2023-07-20T12:03:06;1.47;;;0.87;;
18435;SDS011;9346;52.006;4.720;2023-07-20T12:05:33;1.37;;;1.03;;
18435;SDS011;9346;52.006;4.720;2023-07-20T12:08:00;0.80;;;0.60;;
18435;SDS011;9346;52.006;4.720;2023-07-20T12:10:28;0.70;;;0.60;;
18435;SDS011;9346;52.006;4.720;2023-07-20T12:13:01;0.73;;;0.73;;
18435;SDS011;9346;52.006;4.720;2023-07-20T12:15:31;0.73;;;0.73;;
18435;SDS011;9346;52.006;4.720;2023-07-20T12:17:58;0.97;;;0.80;;
18435;SDS011;9346;52.006;4.720;2023-07-20T12:20:27;1.83;;;0.90;;
18435;SDS011;9346;52.006;4.720;2023-07-20T12:22:56;0.70;;;0.70;;
18435;SDS011;9346;52.006;4.720;2023-07-20T12:25:33;1.03;;;0.80;;
18435;SDS011;9346;52.006;4.720;2023-07-20T12:28:04;0.83;;;0.80;;
18435;SDS011;9346;52.006;4.720;2023-07-20T12:30:33;1.20;;;1.10;;
18435;SDS011;9346;52.006;4.720;2023-07-20T12:33:00;1.20;;;1.10;;
18435;SDS011;9346;52.006;4.720;2023-07-20T12:35:29;3.43;;;0.90;;
18435;SDS011;9346;52.006;4.720;2023-07-20T12:37:56;0.63;;;0.63;;
18435;SDS011;9346;52.006;4.720;2023-07-20T12:40:24;1.10;;;1.00;;
18435;SDS011;9346;52.006;4.720;2023-07-20T12:42:53;0.83;;;0.80;;
18435;SDS011;9346;52.006;4.720;2023-07-20T12:45:20;1.03;;;0.83;;
18435;SDS011;9346;52.006;4.720;2023-07-20T12:47:49;0.70;;;0.70;;
18435;SDS011;9346;52.006;4.720;2023-07-20T12:50:16;1.37;;;0.70;;
18435;SDS011;9346;52.006;4.720;2023-07-20T12:52:43;0.57;;;0.57;;
18435;SDS011;9346;52.006;4.720;2023-07-20T12:55:11;0.70;;;0.70;;
18435;SDS011;9346;52.006;4.720;2023-07-20T12:57:38;0.80;;;0.77;;
18435;SDS011;9346;52.006;4.720;2023-07-20T13:00:06;0.77;;;0.73;;
18435;SDS011;9346;52.006;4.720;2023-07-20T13:02:35;0.60;;;0.60;;
18435;SDS011;9346;52.006;4.720;2023-07-20T13:05:04;1.13;;;0.87;;
18435;SDS011;9346;52.006;4.720;2023-07-20T13:07:32;0.70;;;0.70;;
18435;SDS011;9346;52.006;4.720;2023-07-20T13:10:00;1.93;;;0.83;;
18435;SDS011;9346;52.006;4.720;2023-07-20T13:12:29;1.00;;;0.80;;
18435;SDS011;9346;52.006;4.720;2023-07-20T13:14:57;1.00;;;0.90;;
18435;SDS011;9346;52.006;4.720;2023-07-20T13:17:25;1.03;;;0.70;;
18435;SDS011;9346;52.006;4.720;2023-07-20T13:19:54;0.80;;;0.80;;
18435;SDS011;9346;52.006;4.720;2023-07-20T13:22:24;0.80;;;0.80;;
18435;SDS011;9346;52.006;4.720;2023-07-20T13:24:52;1.57;;;0.80;;
18435;SDS011;9346;52.006;4.720;2023-07-20T13:27:21;0.63;;;0.63;;
18435;SDS011;9346;52.006;4.720;2023-07-20T13:29:48;0.70;;;0.50;;
18435;SDS011;9346;52.006;4.720;2023-07-20T13:32:15;0.60;;;0.60;;
18435;SDS011;9346;52.006;4.720;2023-07-20T13:34:43;0.60;;;0.60;;
18435;SDS011;9346;52.006;4.720;2023-07-20T13:37:10;0.67;;;0.60;;
18435;SDS011;9346;52.006;4.720;2023-07-20T13:39:40;0.60;;;0.60;;
18435;SDS011;9346;52.006;4.720;2023-07-20T13:42:07;1.27;;;0.73;;
18435;SDS011;9346;52.006;4.720;2023-07-20T13:44:36;3.47;;;0.70;;
18435;SDS011;9346;52.006;4.720;2023-07-20T13:47:03;2.73;;;1.37;;
18435;SDS011;9346;52.006;4.720;2023-07-20T13:49:31;0.87;;;0.70;;
18435;SDS011;9346;52.006;4.720;2023-07-20T13:51:58;0.80;;;0.80;;
18435;SDS011;9346;52.006;4.720;2023-07-20T13:54:25;2.13;;;0.67;;
18435;SDS011;9346;52.006;4.720;2023-07-20T13:56:54;0.47;;;0.47;;
18435;SDS011;9346;52.006;4.720;2023-07-20T13:59:22;0.70;;;0.70;;
18435;SDS011;9346;52.006;4.720;2023-07-20T14:01:50;0.80;;;0.73;;
18435;SDS011;9346;52.006;4.720;2023-07-20T14:04:18;1.50;;;0.63;;
18435;SDS011;9346;52.006;4.720;2023-07-20T14:06:45;1.60;;;0.80;;
18435;SDS011;9346;52.006;4.720;2023-07-20T14:09:12;0.50;;;0.50;;
18435;SDS011;9346;52.006;4.720;2023-07-20T14:11:39;0.50;;;0.50;;
18435;SDS011;9346;52.006;4.720;2023-07-20T14:14:08;0.60;;;0.60;;
18435;SDS011;9346;52.006;4.720;2023-07-20T14:16:36;3.07;;;0.67;;
18435;SDS011;9346;52.006;4.720;2023-07-20T14:19:03;1.00;;;0.77;;
18435;SDS011;9346;52.006;4.720;2023-07-20T14:21:31;0.67;;;0.63;;
18435;SDS011;9346;52.006;4.720;2023-07-20T14:23:58;0.70;;;0.50;;
18435;SDS011;9346;52.006;4.720;2023-07-20T14:26:25;0.70;;;0.67;;
18435;SDS011;9346;52.006;4.720;2023-07-20T14:28:52;0.50;;;0.50;;
18435;SDS011;9346;52.006;4.720;2023-07-20T14:31:21;0.50;;;0.50;;
18435;SDS011;9346;52.006;4.720;2023-07-20T14:33:48;0.97;;;0.73;;
18435;SDS011;9346;52.006;4.720;2023-07-20T14:36:15;1.00;;;0.70;;
18435;SDS011;9346;52.006;4.720;2023-07-20T14:38:42;0.60;;;0.60;;
18435;SDS011;9346;52.006;4.720;2023-07-20T14:41:09;0.40;;;0.40;;
18435;SDS011;9346;52.006;4.720;2023-07-20T14:43:37;0.60;;;0.60;;
18435;SDS011;9346;52.006;4.720;2023-07-20T14:46:04;0.70;;;0.70;;
18435;SDS011;9346;52.006;4.720;2023-07-20T14:48:33;0.73;;;0.70;;
18435;SDS011;9346;52.006;4.720;2023-07-20T14:51:00;0.67;;;0.67;;
18435;SDS011;9346;52.006;4.720;2023-07-20T14:53:27;0.60;;;0.60;;
18435;SDS011;9346;52.006;4.720;2023-07-20T14:55:58;1.37;;;0.80;;
18435;SDS011;9346;52.006;4.720;2023-07-20T14:58:26;0.30;;;0.27;;
18435;SDS011;9346;52.006;4.720;2023-07-20T15:00:53;0.40;;;0.40;;
18435;SDS011;9346;52.006;4.720;2023-07-20T15:03:20;0.40;;;0.40;;
18435;SDS011;9346;52.006;4.720;2023-07-20T15:05:49;0.50;;;0.40;;
18435;SDS011;9346;52.006;4.720;2023-07-20T15:08:16;0.50;;;0.50;;
18435;SDS011;9346;52.006;4.720;2023-07-20T15:10:44;0.50;;;0.50;;
18435;SDS011;9346;52.006;4.720;2023-07-20T15:13:11;0.40;;;0.40;;
18435;SDS011;9346;52.006;4.720;2023-07-20T15:15:38;1.00;;;0.70;;